Weather at Chicago Midway International Airport

Public forecast

Using degrees Fahrenheit for public forecast. Weather courtesy of forecast.io.

Current aviation weather report (METAR) for Chicago Midway International Airport

Retrieved 2021/05/14 22:53 UTC (56 minutes ago):

KMDW 142253Z 10009KT 10SM FEW100 BKN250 20/M03 A3023 RMK AO2 SLP234 T02001028

Aviation forecast (TAF) for Chicago Midway International Airport

Retrieved 2021/05/14 18:27 UTC (5 hours ago):

TAF KMDW 141724Z 1418/1524 27004KT P6SM BKN080 FM141900 11011KT P6SM SCT080 SCT250 FM150600 18005KT P6SM BKN200 FM151500 20010G15KT P6SM OVC080 PROB30 1516/1522 6SM -SHRA BKN025